Time;durP1;ratioP1;P1;durP2;ratioP2;P2;SDS_P1;SDS_P2;PMS_P1;PMS_P2;Temp;Humidity;BMP_temperature;BMP_pressure;BME280_temperature;BME280_humidity;BME280_pressure;Samples;Min_cycle;Max_cycle;Signal;HPM_P1;HPM_P2
2023/06/27 00:00:37;;;;;;;6.15;4.00;;;;;;;23.60;46.57;99058.78;5090622;28;20090;-45
2023/06/27 00:03:02;;;;;;;12.65;4.22;;;;;;;23.49;46.73;99053.47;5091958;28;20455;-46
2023/06/27 00:05:30;;;;;;;5.80;3.97;;;;;;;23.31;46.94;99060.25;5091900;28;20034;-45
2023/06/27 00:07:56;;;;;;;12.40;4.82;;;;;;;23.23;47.61;99060.81;5092144;28;20028;-45
2023/06/27 00:10:21;;;;;;;6.10;3.80;;;;;;;23.30;47.32;99066.69;5090596;28;20020;-45
2023/06/27 00:12:47;;;;;;;13.68;3.95;;;;;;;23.23;47.48;99057.34;5091828;28;20474;-44
2023/06/27 00:15:13;;;;;;;15.18;5.22;;;;;;;23.17;47.67;99061.13;5092091;28;20032;-45
2023/06/27 00:17:40;;;;;;;10.25;4.15;;;;;;;23.19;47.83;99061.66;5091811;28;20020;-45
2023/06/27 00:20:09;;;;;;;9.15;3.97;;;;;;;23.07;48.35;99056.59;5090425;28;20401;-45
2023/06/27 00:22:40;;;;;;;14.43;5.60;;;;;;;23.07;48.28;99064.63;5091779;28;20024;-45
2023/06/27 00:25:09;;;;;;;12.73;4.80;;;;;;;23.09;48.37;99067.84;5091761;28;20424;-45
2023/06/27 00:27:36;;;;;;;9.65;3.90;;;;;;;23.13;48.05;99050.94;5091732;28;20039;-45
2023/06/27 00:30:02;;;;;;;20.15;5.45;;;;;;;23.10;48.25;99050.69;5085666;28;20079;-45
2023/06/27 00:32:28;;;;;;;8.63;4.38;;;;;;;23.11;48.10;99053.09;5090901;28;20040;-45
2023/06/27 00:34:53;;;;;;;15.48;4.78;;;;;;;23.15;48.31;99056.03;5094420;28;20027;-45
2023/06/27 00:37:19;;;;;;;8.25;4.30;;;;;;;;;;5095700;28;20478;-45
2023/06/27 00:39:44;;;;;;;8.07;4.15;;;;;;;23.20;48.14;99058.72;5095648;28;20441;-45
2023/06/27 00:42:10;;;;;;;7.85;4.05;;;;;;;23.35;47.73;99049.78;5095491;28;20529;-45
2023/06/27 00:44:36;;;;;;;9.23;4.10;;;;;;;23.50;47.37;99049.72;5094226;28;20039;-45
2023/06/27 00:47:02;;;;;;;16.05;4.57;;;;;;;23.57;47.06;99052.09;5095499;28;20043;-45
2023/06/27 00:49:27;;;;;;;13.55;4.18;;;;;;;23.55;47.09;99051.56;5095517;28;20460;-45
2023/06/27 00:51:55;;;;;;;8.63;3.90;;;;;;;23.58;46.79;99058.25;5093953;28;20106;-45
2023/06/27 00:54:22;;;;;;;14.85;4.05;;;;;;;23.54;46.94;99055.31;5095376;28;20024;-45
2023/06/27 00:56:52;;;;;;;24.70;4.65;;;;;;;23.40;46.89;99057.00;5094033;28;20245;-45
2023/06/27 00:59:17;;;;;;;11.00;3.63;;;;;;;23.35;47.29;99057.84;5095275;28;20048;-45
2023/06/27 01:01:44;;;;;;;12.25;3.97;;;;;;;23.29;47.13;99057.03;5093957;28;20086;-45
2023/06/27 01:04:09;;;;;;;10.00;3.83;;;;;;;23.19;47.09;99059.78;5095192;28;20050;-45
2023/06/27 01:07:00;;;;;;;14.07;4.30;;;;;;;23.11;47.47;99060.34;5095065;28;20020;-45
2023/06/27 01:09:41;;;;;;;9.80;4.22;;;;;;;23.08;47.39;99055.53;5093810;28;20401;-45
2023/06/27 01:12:13;;;;;;;15.55;3.75;;;;;;;23.00;48.04;99062.22;5093617;28;20032;-45
2023/06/27 01:14:42;;;;;;;8.93;3.45;;;;;;;22.85;47.64;99063.06;5095155;28;20034;-45
2023/06/27 01:17:08;;;;;;;6.75;3.35;;;;;;;22.66;47.91;99067.41;5093587;28;20020;-45
2023/06/27 01:19:34;;;;;;;10.90;3.60;;;;;;;22.46;48.21;99062.88;5093572;28;20024;-45
2023/06/27 01:22:05;;;;;;;8.57;3.20;;;;;;;22.29;48.43;99068.50;5093536;28;20744;-45
2023/06/27 01:24:32;;;;;;;14.43;3.63;;;;;;;22.24;49.02;99063.16;5093543;28;20524;-45
2023/06/27 01:26:58;;;;;;;12.43;4.13;;;;;;;22.26;49.02;99069.03;5094753;28;20516;-45
2023/06/27 01:29:25;;;;;;;5.35;3.10;;;;;;;22.25;48.64;99070.88;5093152;28;20078;-46
2023/06/27 01:32:04;;;;;;;13.05;4.45;;;;;;;22.21;49.34;99066.31;5094618;28;20028;-45
2023/06/27 01:34:37;;;;;;;12.55;5.03;;;;;;;22.23;48.90;99064.19;5094634;28;20032;-45
2023/06/27 01:37:17;;;;;;;17.50;4.00;;;;;;;22.40;48.69;99063.97;5093412;28;20032;-45
2023/06/27 01:39:46;;;;;;;15.90;4.85;;;;;;;22.62;48.31;99059.09;5094590;28;20032;-45
2023/06/27 01:42:22;;;;;;;19.80;5.57;;;;;;;22.77;48.57;99057.47;5093212;28;20093;-45
2023/06/27 01:44:49;;;;;;;8.63;3.60;;;;;;;22.77;48.12;99057.47;5091682;28;20024;-45
2023/06/27 01:47:16;;;;;;;6.53;3.30;;;;;;;22.81;48.00;99053.97;5094275;28;20024;-45
2023/06/27 01:49:42;;;;;;;10.55;3.53;;;;;;;22.85;47.67;99063.06;5093077;28;20455;-45
2023/06/27 01:52:12;;;;;;;15.75;5.78;;;;;;;22.73;47.15;99054.53;5094129;28;20036;-45
2023/06/27 01:54:40;;;;;;;10.63;4.10;;;;;;;22.53;47.09;99056.16;5094310;28;20024;-45
2023/06/27 01:57:06;;;;;;;11.57;5.35;;;;;;;22.36;47.66;99057.53;5094187;28;20509;-45
2023/06/27 01:59:32;;;;;;;9.43;5.38;;;;;;;22.18;48.15;99056.97;5094121;28;20028;-45
2023/06/27 02:01:57;;;;;;;6.10;3.10;;;;;;;22.09;48.02;99059.38;5094228;28;20054;-45
2023/06/27 02:04:23;;;;;;;11.65;4.22;;;;;;;21.99;47.93;99064.69;5094075;28;20508;-45
2023/06/27 02:06:49;;;;;;;10.65;3.38;;;;;;;21.84;48.52;99059.34;5093965;28;20019;-46
2023/06/27 02:09:14;;;;;;;17.63;5.72;;;;;;;21.68;48.59;99059.31;5092653;28;20028;-45
2023/06/27 02:11:40;;;;;;;6.35;3.35;;;;;;;21.65;48.80;99053.69;5092510;28;20027;-45
2023/06/27 02:14:05;;;;;;;12.52;3.58;;;;;;;21.62;48.78;99057.69;5093747;28;20039;-45
2023/06/27 02:16:31;;;;;;;11.88;2.95;;;;;;;21.67;48.85;99057.72;5093800;28;20016;-45
2023/06/27 02:18:57;;;;;;;7.50;3.15;;;;;;;21.75;48.57;99056.38;5092407;28;20393;-45
2023/06/27 02:21:22;;;;;;;11.38;3.38;;;;;;;21.77;48.52;99056.91;5093724;28;20089;-45
2023/06/27 02:23:48;;;;;;;12.25;3.35;;;;;;;21.73;48.55;99058.50;5093645;28;20024;-45
2023/06/27 02:26:14;;;;;;;12.10;3.20;;;;;;;21.60;48.54;99059.84;5092281;28;20035;-45
2023/06/27 02:28:39;;;;;;;12.23;3.90;;;;;;;21.42;49.17;99068.31;5092429;28;20546;-45
2023/06/27 02:31:05;;;;;;;9.75;2.92;;;;;;;21.34;49.34;99062.38;5091839;28;20391;-45
2023/06/27 02:33:31;;;;;;;12.35;3.88;;;;;;;21.20;49.51;99065.81;5093421;28;20073;-45
2023/06/27 02:35:56;;;;;;;8.25;2.78;;;;;;;21.10;49.50;99061.22;5092092;28;20046;-45
2023/06/27 02:38:22;;;;;;;8.25;3.00;;;;;;;20.97;49.89;99062.50;5092091;28;20114;-45
2023/06/27 02:40:47;;;;;;;9.68;2.70;;;;;;;20.91;49.90;99060.88;5091994;28;20095;-45
2023/06/27 02:43:13;;;;;;;14.60;3.65;;;;;;;20.84;50.36;99062.97;5093546;28;20440;-45
2023/06/27 02:45:40;;;;;;;12.73;3.20;;;;;;;20.81;50.41;99061.63;5093215;28;20027;-45
2023/06/27 02:48:07;;;;;;;7.70;3.03;;;;;;;20.75;50.41;99068.00;5093416;28;20020;-45
2023/06/27 02:50:33;;;;;;;9.93;2.85;;;;;;;20.72;50.64;99066.63;5092206;28;20436;-45
2023/06/27 02:52:58;;;;;;;21.23;5.43;;;;;;;20.73;51.05;99070.09;5092993;28;20554;-45
2023/06/27 02:55:24;;;;;;;13.35;3.40;;;;;;;20.71;50.96;99069.56;5091421;28;20016;-45
2023/06/27 02:57:49;;;;;;;16.30;3.75;;;;;;;20.73;51.10;99075.44;5093070;28;20027;-45
2023/06/27 03:00:16;;;;;;;8.75;2.78;;;;;;;20.83;51.08;99072.03;5092989;28;20497;-45
2023/06/27 03:02:41;;;;;;;13.07;3.50;;;;;;;20.88;50.73;99066.72;5092976;28;20038;-45
2023/06/27 03:05:07;;;;;;;7.88;3.13;;;;;;;20.90;50.58;99067.25;5092966;28;20099;-45
2023/06/27 03:07:33;;;;;;;9.82;3.15;;;;;;;20.90;50.82;99069.94;5092905;28;20040;-45
2023/06/27 03:09:58;;;;;;;7.60;3.15;;;;;;;20.93;51.03;99064.88;5091454;28;20032;-45
2023/06/27 03:12:24;;;;;;;9.57;2.65;;;;;;;21.07;50.32;99067.09;5092718;28;20103;-45
2023/06/27 03:14:50;;;;;;;9.07;3.13;;;;;;;21.02;50.15;99064.41;5091390;28;20497;-45
2023/06/27 03:17:16;;;;;;;11.95;2.80;;;;;;;21.01;50.46;99060.94;5092724;28;20393;-45
2023/06/27 03:19:41;;;;;;;14.70;2.90;;;;;;;21.03;50.17;99064.13;5091330;28;20040;-45
2023/06/27 03:22:07;;;;;;;9.57;2.85;;;;;;;20.92;50.17;99063.25;5092597;28;20145;-45
2023/06/27 03:24:33;;;;;;;13.05;3.50;;;;;;;20.80;50.67;99072.53;5091253;28;20123;-45
2023/06/27 03:26:58;;;;;;;8.70;2.95;;;;;;;20.74;50.85;99064.53;5091160;28;20580;-45
2023/06/27 03:29:24;;;;;;;9.38;3.10;;;;;;;20.70;50.69;99075.94;5090955;28;20410;-45
2023/06/27 03:31:49;;;;;;;13.80;3.58;;;;;;;20.63;50.87;99078.03;5092488;28;20034;-45
2023/06/27 03:34:17;;;;;;;11.88;3.53;;;;;;;20.56;50.96;99078.22;5090971;28;20044;-45
2023/06/27 03:36:42;;;;;;;7.30;2.63;;;;;;;20.51;51.04;99083.53;5090966;28;20043;-45
2023/06/27 03:39:08;;;;;;;11.60;3.10;;;;;;;20.49;51.25;99078.44;5091132;28;20031;-45
2023/06/27 03:41:34;;;;;;;8.55;2.65;;;;;;;20.48;51.27;99076.03;5092235;28;20065;-45
2023/06/27 03:44:00;;;;;;;21.88;10.77;;;;;;;20.48;51.14;99076.03;5090845;28;20089;-45
2023/06/27 03:46:26;;;;;;;19.25;7.53;;;;;;;20.45;51.19;99080.00;5092198;28;20011;-45
2023/06/27 03:48:56;;;;;;;12.50;3.42;;;;;;;20.45;51.63;99085.34;5092142;28;20371;-45
2023/06/27 03:51:22;;;;;;;19.02;4.47;;;;;;;20.44;51.54;99082.94;5090793;28;20020;-45
2023/06/27 03:53:47;;;;;;;12.52;3.45;;;;;;;20.41;51.76;99081.59;5090647;28;20047;-45
2023/06/27 03:56:13;;;;;;;7.00;2.50;;;;;;;20.37;51.82;99087.69;5090728;28;20024;-45
2023/06/27 03:58:39;;;;;;;7.95;2.58;;;;;;;20.34;52.04;99079.16;5092004;28;20026;-45
2023/06/27 04:01:04;;;;;;;10.80;2.50;;;;;;;20.42;51.98;99083.19;5091968;28;20059;-45
2023/06/27 04:03:30;;;;;;;11.55;2.83;;;;;;;20.43;52.16;99087.47;5092273;28;20454;-45
2023/06/27 04:05:56;;;;;;;8.38;2.97;;;;;;;20.40;51.86;99082.63;5091892;28;20020;-45
2023/06/27 04:08:21;;;;;;;12.52;2.92;;;;;;;20.33;51.74;99084.72;5091117;28;20051;-45
2023/06/27 04:10:47;;;;;;;9.85;2.95;;;;;;;20.24;52.11;99083.56;5091817;28;20020;-45
2023/06/27 04:13:13;;;;;;;9.93;3.42;;;;;;;20.24;52.38;99078.25;5090440;28;20409;-45
2023/06/27 04:15:41;;;;;;;16.13;4.75;;;;;;;20.27;51.96;99083.06;5091829;28;20016;-45
2023/06/27 04:18:07;;;;;;;9.00;3.30;;;;;;;20.34;52.39;99089.81;5090544;28;20024;-45
2023/06/27 04:20:33;;;;;;;10.20;3.65;;;;;;;20.52;52.21;99096.63;5091767;28;20028;-45
2023/06/27 04:22:58;;;;;;;23.58;4.05;;;;;;;20.71;51.91;99093.56;5091689;28;20036;-45
2023/06/27 04:25:29;;;;;;;21.23;5.00;;;;;;;20.82;51.70;99095.22;5091800;28;20024;-45
2023/06/27 04:27:55;;;;;;;14.65;3.35;;;;;;;21.07;51.09;99099.13;5090498;28;20071;-45
2023/06/27 04:30:21;;;;;;;15.32;3.90;;;;;;;21.41;50.20;99106.72;5091538;28;20072;-45
2023/06/27 04:32:48;;;;;;;21.23;4.07;;;;;;;21.67;49.96;99105.81;5091605;28;20075;-45
2023/06/27 04:35:16;;;;;;;7.80;2.78;;;;;;;21.93;49.22;99100.50;5091868;28;20367;-45
2023/06/27 04:37:41;;;;;;;10.90;2.85;;;;;;;22.26;48.32;99101.91;5091667;28;20108;-45
2023/06/27 04:40:10;;;;;;;14.43;2.97;;;;;;;22.47;47.79;99107.25;5090270;28;20502;-45
2023/06/27 04:42:37;;;;;;;13.77;3.42;;;;;;;22.65;47.11;99104.03;5091544;28;20496;-45
2023/06/27 04:45:03;;;;;;;17.25;4.07;;;;;;;22.93;46.42;99105.31;5091571;28;20383;-45
2023/06/27 04:47:29;;;;;;;13.38;3.03;;;;;;;23.03;45.76;99099.19;5091563;28;20027;-45
2023/06/27 04:49:55;;;;;;;33.90;5.10;;;;;;;23.27;45.55;99103.94;5090229;28;20035;-45
2023/06/27 04:52:21;;;;;;;12.30;3.50;;;;;;;23.68;44.67;99098.38;5091445;28;20432;-46
2023/06/27 04:54:49;;;;;;;15.43;3.03;;;;;;;24.00;43.84;99091.78;5091538;28;20039;-45
2023/06/27 04:57:17;;;;;;;25.00;3.03;;;;;;;24.42;42.35;99091.19;5090148;28;20107;-45
2023/06/27 04:59:44;;;;;;;18.50;3.22;;;;;;;24.72;42.05;99097.38;5091446;28;20036;-45
2023/06/27 05:02:09;;;;;;;71.03;9.27;;;;;;;24.96;41.55;99089.34;5091392;28;20082;-45
2023/06/27 05:04:36;;;;;;;16.77;3.15;;;;;;;25.38;40.84;99097.78;5091400;28;20056;-45
2023/06/27 05:07:04;;;;;;;79.75;7.32;;;;;;;25.75;39.83;99086.25;5091450;28;20031;-45
2023/06/27 05:09:30;;;;;;;47.10;5.85;;;;;;;26.06;38.84;99083.16;5091293;28;20416;-45
2023/06/27 05:11:56;;;;;;;24.00;4.05;;;;;;;26.24;38.40;99078.81;5090010;28;20109;-45
2023/06/27 05:14:22;;;;;;;41.53;5.55;;;;;;;26.37;38.26;99088.03;5089919;28;20559;-45
2023/06/27 05:16:48;;;;;;;17.45;4.10;;;;;;;26.40;38.22;99082.88;5091543;28;20016;-45
2023/06/27 05:19:13;;;;;;;13.85;3.20;;;;;;;26.53;37.67;99083.19;5092996;28;20081;-45
2023/06/27 05:21:39;;;;;;;28.73;3.78;;;;;;;26.48;37.40;99089.44;5094891;28;20516;-45
2023/06/27 05:24:05;;;;;;;19.42;4.15;;;;;;;26.35;37.90;99090.22;5093526;28;20036;-45
2023/06/27 05:26:35;;;;;;;15.07;3.60;;;;;;;26.17;38.41;99089.97;5094672;28;20031;-45
2023/06/27 05:29:01;;;;;;;8.70;3.20;;;;;;;26.25;38.10;99091.19;5095006;28;20031;-45
2023/06/27 05:31:27;;;;;;;18.58;3.70;;;;;;;26.51;38.03;99083.47;5094425;28;20493;-45
2023/06/27 05:33:54;;;;;;;62.60;6.72;;;;;;;26.50;37.69;99088.06;5094616;28;20535;-46
2023/06/27 05:36:19;;;;;;;30.92;4.70;;;;;;;26.50;38.10;99085.38;5093288;28;20024;-45
2023/06/27 05:38:45;;;;;;;19.45;3.53;;;;;;;26.77;37.67;99094.63;5093269;28;20028;-46
2023/06/27 05:41:11;;;;;;;20.80;4.55;;;;;;;27.09;36.87;99092.94;5094547;28;20024;-45
2023/06/27 05:43:37;;;;;;;15.13;3.53;;;;;;;27.06;36.98;99093.53;5094391;28;20070;-46
2023/06/27 05:46:03;;;;;;;21.30;3.70;;;;;;;27.15;36.61;99091.75;5093082;28;20119;-45
2023/06/27 05:48:28;;;;;;;27.35;4.07;;;;;;;27.41;36.25;99094.75;5094400;28;20020;-45
2023/06/27 05:50:54;;;;;;;22.83;4.57;;;;;;;27.46;36.05;99091.16;5094338;28;20102;-46
2023/06/27 05:53:20;;;;;;;17.13;3.35;;;;;;;27.56;35.69;99088.22;5094216;28;20470;-46
2023/06/27 05:55:45;;;;;;;8.95;2.90;;;;;;;27.61;35.71;99077.34;5094261;28;20392;-45
2023/06/27 05:58:11;;;;;;;18.85;3.55;;;;;;;28.27;34.75;99077.72;5092952;28;20073;-45
2023/06/27 06:00:37;;;;;;;105.43;9.70;;;;;;;29.08;33.62;99071.28;5094122;28;20024;-45
2023/06/27 06:03:03;;;;;;;62.97;7.43;;;;;;;29.61;32.56;99082.22;5094106;28;20073;-45
2023/06/27 06:05:29;;;;;;;28.25;4.40;;;;;;;30.10;32.10;99082.88;5093984;28;20397;-45
2023/06/27 06:07:54;;;;;;;18.70;3.15;;;;;;;30.53;31.02;99075.81;5094064;28;20427;-45
2023/06/27 06:10:21;;;;;;;15.10;3.60;;;;;;;30.69;30.96;99066.03;5092636;28;20040;-45
2023/06/27 06:12:47;;;;;;;11.75;2.80;;;;;;;30.90;30.96;99066.13;5093747;28;20032;-45
2023/06/27 06:15:13;;;;;;;14.48;3.20;;;;;;;31.49;29.89;99070.75;5093911;28;20111;-45
2023/06/27 06:17:39;;;;;;;18.20;3.40;;;;;;;31.81;29.18;99073.84;5094065;28;20020;-46
2023/06/27 06:20:11;;;;;;;18.23;3.17;;;;;;;31.98;28.76;99078.34;5093780;28;20561;-46
2023/06/27 06:22:37;;;;;;;19.65;3.67;;;;;;;32.27;28.96;99080.16;5092458;28;20089;-45
2023/06/27 06:25:04;;;;;;;10.57;3.00;;;;;;;32.63;28.30;99082.19;5093643;28;20032;-46
2023/06/27 06:27:30;;;;;;;15.48;3.67;;;;;;;33.02;27.96;99073.69;5092306;28;20024;-46
2023/06/27 06:29:55;;;;;;;13.82;3.83;;;;;;;33.34;27.25;99068.47;5092782;28;20390;-46
2023/06/27 06:32:21;;;;;;;24.42;4.40;;;;;;;33.80;26.43;99077.25;5093295;28;20024;-46
2023/06/27 06:34:47;;;;;;;18.92;3.75;;;;;;;34.20;26.18;99068.22;5092160;28;20051;-46
2023/06/27 06:37:14;;;;;;;21.00;3.53;;;;;;;34.59;25.66;99063.78;5093411;28;20028;-46
2023/06/27 06:39:41;;;;;;;32.60;5.03;;;;;;;34.69;25.53;99073.41;5092023;28;20043;-46
2023/06/27 06:42:08;;;;;;;47.65;5.45;;;;;;;34.45;25.73;99063.44;5093390;28;20039;-46
2023/06/27 06:44:33;;;;;;;19.17;3.70;;;;;;;34.77;25.16;99063.44;5075140;28;20378;-46
2023/06/27 06:46:59;;;;;;;19.67;3.45;;;;;;;35.13;24.72;99069.72;5091958;28;20032;-46
2023/06/27 06:49:25;;;;;;;15.35;3.20;;;;;;;35.36;24.11;99067.16;5093159;28;20024;-46
2023/06/27 06:51:51;;;;;;;31.33;4.72;;;;;;;35.03;24.50;99071.06;5091822;28;20028;-46
2023/06/27 06:54:17;;;;;;;33.88;4.95;;;;;;;34.84;24.61;99068.31;5091709;28;20020;-46
2023/06/27 06:56:43;;;;;;;10.27;2.67;;;;;;;34.90;24.61;99075.84;5093277;28;20050;-46
2023/06/27 06:59:08;;;;;;;39.35;4.15;;;;;;;35.37;24.23;99071.47;5091733;28;20564;-46
2023/06/27 07:01:34;;;;;;;33.40;3.78;;;;;;;35.59;23.78;99068.03;5092847;28;20024;-45
2023/06/27 07:04:00;;;;;;;15.43;3.15;;;;;;;35.83;23.48;99066.19;5091600;28;20020;-45
2023/06/27 07:06:26;;;;;;;16.92;3.35;;;;;;;35.89;23.35;99066.69;5091517;28;20111;-46
2023/06/27 07:08:52;;;;;;;14.15;3.03;;;;;;;35.74;23.17;99073.84;5092787;28;20024;-46
2023/06/27 07:11:18;;;;;;;21.85;3.67;;;;;;;35.45;23.83;99067.72;5092747;28;20516;-45
2023/06/27 07:13:44;;;;;;;7.32;2.30;;;;;;;35.12;23.82;99068.16;5091340;28;20031;-46
2023/06/27 07:16:09;;;;;;;16.75;3.20;;;;;;;34.85;24.11;99067.94;5092649;28;20446;-45
2023/06/27 07:18:35;;;;;;;13.18;2.72;;;;;;;34.57;24.60;99068.00;5092683;28;20067;-46
2023/06/27 07:21:01;;;;;;;10.40;2.47;;;;;;;34.49;24.65;99064.31;5092644;28;20028;-45
2023/06/27 07:23:26;;;;;;;12.27;2.80;;;;;;;33.81;25.21;99070.66;5092536;28;20024;-45
2023/06/27 07:25:52;;;;;;;13.13;2.58;;;;;;;33.22;26.34;99072.84;5091176;28;20028;-46
2023/06/27 07:28:20;;;;;;;18.48;3.05;;;;;;;32.88;26.59;99074.06;5091190;28;20028;-46
2023/06/27 07:30:46;;;;;;;7.65;2.50;;;;;;;32.44;26.78;99066.41;5090816;28;20560;-46
2023/06/27 07:33:12;;;;;;;16.73;3.03;;;;;;;31.93;27.92;99075.81;5092574;28;20091;-45
2023/06/27 07:35:38;;;;;;;15.20;2.78;;;;;;;30.96;28.45;99074.88;5092345;28;20035;-45
2023/06/27 07:38:04;;;;;;;30.55;3.40;;;;;;;30.10;29.94;99076.66;5091339;28;20120;-45
2023/06/27 07:40:29;;;;;;;15.95;2.42;;;;;;;29.68;30.50;99072.53;5090981;28;20557;-45
2023/06/27 07:42:55;;;;;;;14.23;2.80;;;;;;;29.88;31.04;99075.72;5092280;28;20480;-46
2023/06/27 07:45:21;;;;;;;23.35;3.05;;;;;;;30.77;29.87;99075.25;5092179;28;20047;-45
2023/06/27 07:47:46;;;;;;;10.07;2.97;;;;;;;32.00;28.49;99066.06;5092229;28;20375;-45
2023/06/27 07:50:12;;;;;;;10.77;2.42;;;;;;;33.10;26.90;99063.88;5090854;28;20023;-45
2023/06/27 07:52:39;;;;;;;14.85;2.47;;;;;;;33.98;26.03;99062.19;5092033;28;20020;-46
2023/06/27 07:55:06;;;;;;;15.27;2.63;;;;;;;34.71;24.82;99053.97;5092007;28;20069;-46
2023/06/27 07:57:31;;;;;;;17.42;3.50;;;;;;;35.27;24.04;99044.72;5092097;28;20056;-45
2023/06/27 07:59:57;;;;;;;14.57;2.80;;;;;;;35.78;23.50;99050.91;5090861;28;20110;-46
2023/06/27 08:02:23;;;;;;;10.75;2.83;;;;;;;36.40;22.93;99047.34;5091991;28;20039;-45
2023/06/27 08:04:48;;;;;;;13.27;2.38;;;;;;;36.72;22.26;99047.09;5090702;28;20028;-46
2023/06/27 08:07:14;;;;;;;7.20;2.50;;;;;;;37.12;21.66;99038.34;5090578;28;20512;-46
2023/06/27 08:09:39;;;;;;;10.57;3.22;;;;;;;37.32;21.56;99033.53;5091950;28;20409;-46
2023/06/27 08:12:06;;;;;;;12.02;2.85;;;;;;;37.14;21.26;99035.25;5073853;28;20052;-46
2023/06/27 08:14:32;;;;;;;9.40;2.30;;;;;;;37.18;21.95;99033.34;5091986;28;20085;-46
2023/06/27 08:16:57;;;;;;;15.40;2.95;;;;;;;37.33;21.47;99032.38;5090622;28;20493;-46
2023/06/27 08:19:23;;;;;;;18.67;2.72;;;;;;;37.60;20.89;99034.28;5090514;28;20039;-46
2023/06/27 08:21:48;;;;;;;7.35;2.65;;;;;;;37.82;20.72;99036.09;5090455;28;20027;-46
2023/06/27 08:24:14;;;;;;;18.20;3.15;;;;;;;37.84;20.72;99031.03;5090480;28;20038;-46
2023/06/27 08:26:40;;;;;;;7.70;3.13;;;;;;;38.06;20.32;99036.75;5091819;28;20094;-46
2023/06/27 08:29:05;;;;;;;10.23;2.40;;;;;;;38.05;20.68;99035.16;5091791;28;20028;-46
2023/06/27 08:31:31;;;;;;;11.27;2.63;;;;;;;38.01;21.05;99024.13;5091422;28;20055;-45
2023/06/27 08:33:57;;;;;;;16.15;2.67;;;;;;;38.24;20.39;99024.00;5073559;28;20070;-46
2023/06/27 08:36:22;;;;;;;10.65;2.30;;;;;;;38.69;19.91;99024.00;5091633;28;20028;-46
2023/06/27 08:38:48;;;;;;;9.00;2.70;;;;;;;39.05;19.18;99027.75;5091690;28;20043;-46
2023/06/27 08:41:16;;;;;;;17.63;2.88;;;;;;;39.13;19.14;99023.88;5091493;28;20461;-46
2023/06/27 08:43:42;;;;;;;9.57;2.97;;;;;;;39.13;19.43;99029.38;5090288;28;20020;-46
2023/06/27 08:46:09;;;;;;;14.48;2.90;;;;;;;39.26;19.19;99018.88;5091623;28;20095;-46
2023/06/27 08:48:39;;;;;;;8.70;2.35;;;;;;;39.44;18.84;99023.66;5091842;28;20024;-46
2023/06/27 08:51:08;;;;;;;9.20;2.58;;;;;;;39.33;19.07;99031.84;5091502;28;20078;-46
2023/06/27 08:53:36;;;;;;;13.65;2.50;;;;;;;39.28;19.10;99019.25;5092247;28;20046;-46
2023/06/27 08:56:09;;;;;;;10.55;2.42;;;;;;;39.10;19.26;99021.94;5095446;28;20106;-46
2023/06/27 08:59:02;;;;;;;19.58;3.00;;;;;;;39.20;19.20;99016.84;5094126;28;20028;-46
2023/06/27 09:01:32;;;;;;;13.40;3.25;;;;;;;38.87;19.40;99008.41;5095318;28;20043;-46
2023/06/27 09:04:02;;;;;;;13.73;2.95;;;;;;;38.72;19.49;99010.31;5095636;28;20024;-46
2023/06/27 09:06:28;;;;;;;11.05;2.90;;;;;;;38.89;18.88;99011.56;5093919;28;20520;-45
2023/06/27 09:08:54;;;;;;;27.88;4.43;;;;;;;38.65;18.87;99010.25;5093826;28;20475;-45
2023/06/27 09:11:20;;;;;;;16.05;2.78;;;;;;;38.39;18.96;99010.41;5093759;28;20036;-46
2023/06/27 09:13:46;;;;;;;11.82;2.38;;;;;;;37.96;18.87;99006.09;5095236;28;20389;-46
2023/06/27 09:16:13;;;;;;;12.50;2.35;;;;;;;37.77;19.62;99012.56;5095048;28;20059;-46
2023/06/27 09:18:40;;;;;;;7.68;2.22;;;;;;;37.71;19.86;99016.81;5093635;28;20103;-45
2023/06/27 09:21:06;;;;;;;7.57;2.33;;;;;;;37.80;19.05;99011.03;5094925;28;20024;-45
2023/06/27 09:23:32;;;;;;;18.67;3.08;;;;;;;37.86;19.27;99003.25;5094811;28;20032;-45
2023/06/27 09:26:13;;;;;;;10.48;2.50;;;;;;;38.20;19.59;99000.47;5093579;28;20387;-46
2023/06/27 09:28:50;;;;;;;11.65;2.35;;;;;;;38.38;19.06;99006.88;5093480;28;20078;-46
2023/06/27 09:31:20;;;;;;;9.07;2.10;;;;;;;38.38;19.13;99001.41;5093077;28;20040;-46
2023/06/27 09:33:48;;;;;;;12.60;2.50;;;;;;;38.20;18.99;99001.25;5094573;28;20501;-46
2023/06/27 09:36:35;;;;;;;22.55;5.78;;;;;;;37.98;19.62;98997.50;5094837;28;20521;-46
2023/06/27 09:39:06;;;;;;;12.85;2.70;;;;;;;37.98;19.48;98997.50;5093380;28;20513;-45
2023/06/27 09:41:46;;;;;;;14.43;2.60;;;;;;;38.09;19.55;98998.44;5094531;28;20485;-46
2023/06/27 09:44:19;;;;;;;8.70;2.10;;;;;;;37.92;19.20;98994.31;5076452;28;20032;-46
2023/06/27 09:46:47;;;;;;;18.40;3.05;;;;;;;37.30;19.34;98994.00;5093225;28;20028;-45
2023/06/27 09:49:14;;;;;;;15.30;2.97;;;;;;;36.89;20.20;99000.09;5094351;28;20428;-46
2023/06/27 09:51:43;;;;;;;11.85;2.67;;;;;;;37.09;20.34;98989.81;5094304;28;20024;-46
2023/06/27 09:54:11;;;;;;;21.33;5.15;;;;;;;37.59;19.29;98981.47;5093008;28;20503;-45
2023/06/27 09:56:37;;;;;;;8.90;2.72;;;;;;;38.15;19.52;98985.16;5076156;28;20017;-46
2023/06/27 09:59:10;;;;;;;13.23;2.72;;;;;;;37.83;19.42;98987.56;5092930;28;20032;-45
2023/06/27 10:01:40;;;;;;;7.25;2.53;;;;;;;37.60;19.15;98991.25;5094069;28;20016;-46
2023/06/27 10:04:07;;;;;;;12.48;2.03;;;;;;;37.85;18.74;98977.81;5094133;28;20023;-45
2023/06/27 10:06:33;;;;;;;18.60;3.30;;;;;;;37.95;19.52;98981.81;5092930;28;20066;-46
2023/06/27 10:09:00;;;;;;;8.02;2.03;;;;;;;38.01;19.14;98977.56;5094066;28;20035;-46
2023/06/27 10:11:26;;;;;;;12.07;2.33;;;;;;;38.04;19.44;98979.56;5093988;28;20078;-46
2023/06/27 10:13:52;;;;;;;9.80;2.40;;;;;;;37.97;18.72;98980.28;5092586;28;20401;-45
2023/06/27 10:16:19;;;;;;;10.40;2.47;;;;;;;37.81;18.34;98974.22;5092541;28;20039;-45
2023/06/27 10:18:45;;;;;;;12.95;2.25;;;;;;;37.67;18.99;98974.09;5093773;28;20027;-45
2023/06/27 10:21:11;;;;;;;14.48;2.40;;;;;;;37.31;18.85;98979.94;5093753;28;20020;-45
2023/06/27 10:23:44;;;;;;;12.25;2.50;;;;;;;36.78;19.16;98974.50;5093675;28;20024;-46
2023/06/27 10:26:10;;;;;;;10.50;2.00;;;;;;;36.57;19.64;98972.25;5092501;28;20093;-45
2023/06/27 10:28:36;;;;;;;13.57;3.00;;;;;;;36.77;19.64;98965.53;5092360;28;20021;-45
2023/06/27 10:31:05;;;;;;;14.57;2.78;;;;;;;36.64;19.98;98969.63;5093370;28;20136;-45
2023/06/27 10:33:32;;;;;;;21.23;2.70;;;;;;;36.82;19.51;98966.38;5093394;28;20025;-46
2023/06/27 10:36:05;;;;;;;12.80;2.80;;;;;;;36.73;19.69;98975.63;5093478;28;20031;-45
2023/06/27 10:38:45;;;;;;;16.92;2.50;;;;;;;36.81;19.92;98973.00;5092540;28;20012;-45
2023/06/27 10:41:23;;;;;;;29.05;3.35;;;;;;;37.06;19.82;98967.84;5092118;28;20051;-46
2023/06/27 10:43:51;;;;;;;11.27;2.78;;;;;;;37.43;19.66;98972.63;5093383;28;20020;-45
2023/06/27 10:46:22;;;;;;;14.52;2.45;;;;;;;37.27;19.39;98973.63;5093511;28;20405;-46
2023/06/27 10:49:07;;;;;;;16.17;2.80;;;;;;;37.44;19.45;98974.22;5093382;28;20063;-46
2023/06/27 10:51:35;;;;;;;16.98;2.40;;;;;;;37.28;19.01;98974.41;5093269;28;20024;-45
2023/06/27 10:54:11;;;;;;;19.83;3.70;;;;;;;36.68;19.82;98975.16;5091735;28;20389;-45
2023/06/27 10:56:47;;;;;;;19.58;3.53;;;;;;;36.13;20.41;98978.94;5093100;28;20028;-46
2023/06/27 10:59:18;;;;;;;9.77;2.15;;;;;;;36.05;20.71;98976.44;5093311;28;20024;-46
2023/06/27 11:01:49;;;;;;;9.20;2.30;;;;;;;36.19;20.33;98972.03;5091682;28;20386;-45
2023/06/27 11:04:25;;;;;;;11.45;2.78;;;;;;;35.78;20.72;98976.38;5092993;28;20405;-46
2023/06/27 11:07:00;;;;;;;24.42;3.22;;;;;;;35.39;21.04;98974.41;5091639;28;20060;-46
2023/06/27 11:09:30;;;;;;;33.53;4.10;;;;;;;35.02;21.54;98979.47;5092890;28;20024;-45
2023/06/27 11:12:17;;;;;;;11.07;2.47;;;;;;;35.00;21.78;98979.84;5093019;28;20032;-46
2023/06/27 11:14:45;;;;;;;21.35;3.13;;;;;;;35.13;21.99;98988.66;5092727;28;20077;-46
2023/06/27 11:17:12;;;;;;;7.07;2.25;;;;;;;35.32;21.57;98970.78;5092366;28;20020;-45
2023/06/27 11:19:39;;;;;;;10.55;2.30;;;;;;;35.25;21.97;98981.53;5091376;28;20027;-45
2023/06/27 11:22:06;;;;;;;18.35;2.45;;;;;;;35.10;21.63;98985.88;5074393;28;20513;-45
2023/06/27 11:24:32;;;;;;;14.05;2.40;;;;;;;34.91;21.95;98979.22;5091295;28;20024;-45
2023/06/27 11:27:00;;;;;;;18.42;2.28;;;;;;;34.76;21.91;98966.44;5091546;28;20036;-45